Eastport, Canada
Current Conditions -  °F | °C
As of 10:00 AM on Tuesday 21 Oct 2014 (Local Time) from CYQX Reporting Station
Broken Clouds Broken Clouds  
Wind Chill: 37°   Ceiling: 2400
Heat Index: 45°   Visibility: 20mi
Dew Point: 37°   Wind: 20mph
Humidity: 76%   Direction: 240°WSW
Pressure: 29.88"   Gusts: 26mph
Location:  48.65°N, 53.77°W
Report Text: CYQX 211200Z 24017G23KT 20SM BKN024 BKN032 07/03 A2988 RMK SC6SC1 SLP122
Loading
Personal Weather Stations






























Interactive Weather Map
Tropical Storm Tracking
New forecast layout! Learn more

10-Day Weather Forecast

Advertisements
Track Severe Weather on mobile